Jordan, MT

9:32 AM MDT on October 01, 2014 (GMT -0600)
Wokal-Glasgow International | Change Station
CLOSE
Current Station
Airport
Location: Glasgow,
Elevation: 2293 ft
Nearby Weather Stations
Active Advisory: Lake Wind Advisory Active Notice: Public Information Statement

Elev 2293 ft 48.21 °N, 106.62 °W | Updated 39 minutes ago

Overcast
Overcast
53 °F
Feels Like 53 °F
N
6
Wind Variable Wind from ESE

Today
High -- | Low -- °F
--% Chance of Precip.
Yesterday
High -- | Low -- °F
Precip. -- in
7:06 AM 6:47 PM
Waxing Crescent, 48% visible
Pressure 29.64 in
Visibility 10.0 miles
Clouds Mostly Cloudy 700 ft
Overcast 1100 ft
Dew Point 50 °F
Humidity 89%
Rainfall 0.00 in
Snow Depth 0 in , 1 in , 1 in
UV 0 out of 12
Pollen .90 out of 12
Air Quality Not available.
Flu Activity Not available.
METAR KGGW 301453Z AUTO 11005KT 10SM BKN007 OVC011 12/10 A2962 RMK AO2 CIG 006V010 SLP037 T01170100 58012

More Conditions Fewer Conditions

Pressure 29.64 in
Visibility 10.0 miles
Clouds Mostly Cloudy 700 ft
Overcast 1100 ft
Dew Point 50 °F
Humidity 89%
Rainfall 0.00 in
Snow Depth 0 in , 1 in , 1 in
UV 0 out of 12
Pollen .90 out of 12
Air Quality Not available.
Flu Activity Not available.
METAR KGGW 301453Z AUTO 11005KT 10SM BKN007 OVC011 12/10 A2962 RMK AO2 CIG 006V010 SLP037 T01170100 58012

More Conditions Fewer Conditions

10-Day Weather Forecast

Almanac

Astronomy

Oct. 01, 2014 Rise Set
Actual Time 7:06 AM MDT 6:47 PM MDT
Civil Twilight 6:36 AM MDT 7:17 PM MDT
Nautical Twilight 6:00 AM MDT 7:53 PM MDT
Astronomical Twilight 5:24 AM MDT 8:29 PM MDT
Moon 2:27 PM MDT No Moon Set
Length of Visible Light 12h 41m
Length of Day
11h 40m
Tomorrow will be 3m 22s shorter.
Waxing Crescent, 48% of the Moon is Illuminated
Today
Waxing Crescent
Oct 1
First Quarter
Oct 8
Full
Oct 15
Last Quarter
Oct 23
New

Today's Extremes

State Highs State Lows

Community

WunderPhotos

Upload Photos

1,757,967 photos uploaded!

Nearby

Snow Depth

Station Depth Elevation
Sleeping Woman 0 in 6150 ft
Beaver Creek 1 in 7850 ft
Crystal Lake 1 in 6050 ft
Fisher Creek 1 in 9100 ft
Porcupine 0 in 6500 ft

Earthquake Activity

City Distance Mag. Time & Date
No recent earthquake activity has been reported nearby.
Minimum magnitude displayed is 2.5.

Coastal Water Temperatures

Place Temperature
No Stations Reporting

Nearby Weather Stations